»·PEaware :: SWA1838 KSAN-KOAK

SWA1838 :: KSAN-KOAK

FLIGHT INFORMATION

Flight Status: Arrived
Operator:
Southwest Airlines
More flights by this operator :: More flights under this callsign
Pilot: Ben F. (2808)
Aircraft: BOEING 737-800
(B738)
More flights by this aircraft type
Origin: KSAN San Diego Intl-Lindbergh
United States
Destination: KOAK Metro Oakland Intl
United States
More flights between these airports :: More routes between these airports
Route: PADRZ2 OROSZ COREZ RGOOD EMZOH3
File this flight plan on PilotEdge
Remarks:
Altitude:
(Current/Filed)
36,000ft
Speed:
(Current/Filed)
458kts
Departed: 27-Nov-19 06:41 PM
Arrived: 27-Nov-19 07:45 PM
Distance/Time
Traveled:
387nm/1:03
Distance/Time
To Go:
Arrived

Flight Plot

Page will automatically refresh every two minutes.

Flight plan parsing failed; only flown route is shown


Map Options




Map Legend


Flown Route
Filed Route
Departure Airport
Arrival Airport
Navaid (VOR, NDB)
Fix

Horizontal Profiles

Position Reports

Time Latitude Longitude Heading Altitude Ground
Speed
27-Nov-19 17:58 32.732490 -117.195447 312 23ft 0kts
27-Nov-19 17:59 32.732490 -117.195447 312 23ft 0kts
27-Nov-19 18:00 32.732490 -117.195447 312 23ft 0kts
27-Nov-19 18:01 32.732490 -117.195447 312 23ft 0kts
27-Nov-19 18:02 32.732490 -117.195447 312 23ft 0kts
27-Nov-19 18:03 32.732490 -117.195447 312 23ft 0kts
27-Nov-19 18:04 32.732490 -117.195447 312 23ft 0kts
27-Nov-19 18:05 32.732490 -117.195447 312 23ft 0kts
27-Nov-19 18:06 32.732490 -117.195447 312 23ft 0kts
27-Nov-19 18:07 32.732490 -117.195447 312 23ft 0kts
27-Nov-19 18:08 32.732490 -117.195447 312 23ft 0kts
27-Nov-19 18:09 32.732490 -117.195447 312 23ft 0kts
27-Nov-19 18:10 32.732490 -117.195447 312 23ft 0kts
27-Nov-19 18:11 32.732490 -117.195447 312 23ft 0kts
27-Nov-19 18:12 32.732490 -117.195447 312 23ft 0kts
27-Nov-19 18:13 32.732490 -117.195447 312 23ft 0kts
27-Nov-19 18:14 32.732490 -117.195447 312 23ft 0kts
27-Nov-19 18:15 32.732490 -117.195447 312 23ft 0kts
27-Nov-19 18:16 32.732490 -117.195447 312 23ft 0kts
27-Nov-19 18:17 32.732490 -117.195447 312 23ft 0kts
27-Nov-19 18:18 32.732490 -117.195447 312 23ft 0kts
27-Nov-19 18:19 32.732490 -117.195447 312 23ft 0kts
27-Nov-19 18:20 32.732490 -117.195447 312 23ft 0kts
27-Nov-19 18:21 32.732490 -117.195447 312 23ft 0kts
27-Nov-19 18:22 32.732489 -117.195446 312 23ft 0kts
27-Nov-19 18:23 32.732058 -117.194985 351 23ft 2kts
27-Nov-19 18:24 32.731954 -117.194983 16 23ft 0kts
27-Nov-19 18:25 32.731955 -117.194983 16 23ft 0kts
27-Nov-19 18:26 32.731956 -117.194983 16 23ft 0kts
27-Nov-19 18:27 32.732859 -117.194476 28 23ft 11kts
27-Nov-19 18:28 32.732199 -117.188380 105 23ft 22kts
27-Nov-19 18:30 32.730394 -117.180856 106 23ft 22kts
27-Nov-19 18:31 32.729513 -117.176805 74 23ft 0kts
27-Nov-19 18:32 32.729513 -117.176805 74 23ft 0kts
27-Nov-19 18:33 32.729513 -117.176805 74 23ft 0kts
27-Nov-19 18:34 32.729513 -117.176805 74 23ft 0kts
27-Nov-19 18:35 32.729513 -117.176805 74 23ft 0kts
27-Nov-19 18:36 32.729513 -117.176805 74 23ft 0kts
27-Nov-19 18:37 32.729513 -117.176805 74 23ft 0kts
27-Nov-19 18:38 32.729513 -117.176805 74 23ft 0kts
27-Nov-19 18:39 32.729513 -117.176805 74 23ft 0kts
27-Nov-19 18:40 32.729530 -117.176735 74 23ft 5kts
27-Nov-19 18:41 32.732258 -117.184351 287 23ft 117kts
27-Nov-19 18:42 32.752473 -117.234482 312 1969ft 205kts
27-Nov-19 18:43 32.793035 -117.302951 295 4301ft 267kts
27-Nov-19 18:44 32.835701 -117.374074 303 8151ft 269kts
27-Nov-19 18:45 32.882117 -117.446160 300 11349ft 284kts
27-Nov-19 18:46 32.935802 -117.529864 300 12981ft 344kts
27-Nov-19 18:47 32.995203 -117.622289 298 15761ft 357kts
27-Nov-19 18:48 33.056874 -117.717973 301 18256ft 373kts
27-Nov-19 18:49 33.137082 -117.804080 309 20503ft 397kts
27-Nov-19 18:49 33.207602 -117.875786 309 22221ft 406kts
27-Nov-19 18:51 33.311525 -117.976873 309 24328ft 419kts
27-Nov-19 18:52 33.401399 -118.064362 309 25811ft 431kts
27-Nov-19 18:52 33.479623 -118.141243 309 26872ft 442kts
27-Nov-19 18:53 33.577893 -118.233661 316 28017ft 466kts
27-Nov-19 18:55 33.719428 -118.315220 324 29239ft 491kts
27-Nov-19 18:55 33.824274 -118.370348 327 30321ft 497kts
27-Nov-19 18:56 33.950757 -118.433815 326 31952ft 488kts
27-Nov-19 18:57 34.075941 -118.497143 326 33242ft 486kts
27-Nov-19 18:58 34.200080 -118.560431 325 34563ft 481kts
27-Nov-19 18:59 34.323728 -118.623500 327 35587ft 484kts
27-Nov-19 19:00 34.447354 -118.687634 321 35679ft 478kts
27-Nov-19 19:01 34.561771 -118.769216 318 35660ft 477kts
27-Nov-19 19:02 34.675900 -118.850752 318 35641ft 475kts
27-Nov-19 19:03 34.790231 -118.931894 319 35638ft 475kts
27-Nov-19 19:04 34.904244 -119.013133 319 35644ft 475kts
27-Nov-19 19:05 35.018280 -119.094754 319 35656ft 474kts
27-Nov-19 19:06 35.131904 -119.176372 319 35665ft 474kts
27-Nov-19 19:07 35.246015 -119.258608 319 35666ft 474kts
27-Nov-19 19:08 35.359820 -119.340714 320 35671ft 475kts
27-Nov-19 19:09 35.473852 -119.423552 320 35680ft 476kts
27-Nov-19 19:10 35.584230 -119.511272 312 35680ft 466kts
27-Nov-19 19:11 35.683422 -119.612973 312 35678ft 465kts
27-Nov-19 19:12 35.782903 -119.714855 312 35671ft 465kts
27-Nov-19 19:13 35.881997 -119.816907 312 35667ft 465kts
27-Nov-19 19:14 35.976710 -119.923937 307 35664ft 460kts
27-Nov-19 19:15 36.068708 -120.034319 308 35660ft 460kts
27-Nov-19 19:16 36.160801 -120.144300 308 35659ft 461kts
27-Nov-19 19:17 36.253379 -120.254315 308 34778ft 461kts
27-Nov-19 19:18 36.345356 -120.364142 308 32052ft 455kts
27-Nov-19 19:19 36.434314 -120.471350 307 29966ft 437kts
27-Nov-19 19:20 36.519943 -120.574914 308 28008ft 422kts
27-Nov-19 19:21 36.605442 -120.671210 312 26144ft 410kts
27-Nov-19 19:22 36.689432 -120.764125 313 24266ft 398kts
27-Nov-19 19:23 36.770908 -120.854890 313 22541ft 385kts
27-Nov-19 19:24 36.849907 -120.942556 314 20836ft 374kts
27-Nov-19 19:25 36.926438 -121.027172 315 19141ft 365kts
27-Nov-19 19:26 37.001121 -121.110372 314 17724ft 351kts
27-Nov-19 19:27 37.072911 -121.190780 315 16256ft 343kts
27-Nov-19 19:28 37.143018 -121.269583 314 14899ft 330kts
27-Nov-19 19:29 37.209284 -121.346355 314 13296ft 315kts
27-Nov-19 19:30 37.272142 -121.419738 314 11886ft 305kts
27-Nov-19 19:31 37.333996 -121.492110 315 10499ft 300kts
27-Nov-19 19:32 37.392395 -121.560121 316 9631ft 271kts
27-Nov-19 19:33 37.446332 -121.624706 307 8291ft 264kts
27-Nov-19 19:34 37.488362 -121.699397 304 6934ft 258kts
27-Nov-19 19:35 37.528407 -121.773119 291 6217ft 250kts
27-Nov-19 19:36 37.540740 -121.855323 276 5420ft 232kts
27-Nov-19 19:37 37.550160 -121.933478 277 4713ft 216kts
27-Nov-19 19:38 37.561338 -122.003577 298 4078ft 198kts
27-Nov-19 19:39 37.596629 -122.057779 308 3459ft 212kts
27-Nov-19 19:40 37.631538 -122.111203 307 2060ft 180kts
27-Nov-19 19:41 37.662236 -122.155265 313 1168ft 155kts
27-Nov-19 19:42 37.688694 -122.195064 308 401ft 149kts
27-Nov-19 19:43 37.711147 -122.228746 309 14ft 46kts
27-Nov-19 19:44 37.714930 -122.230717 115 14ft 11kts
27-Nov-19 19:45 37.712064 -122.225371 53 14ft 13kts
27-Nov-19 19:46 37.712077 -122.220655 130 14ft 20kts
27-Nov-19 19:47 37.708776 -122.215715 113 14ft 7kts
27-Nov-19 19:48 37.709617 -122.214035 26 14ft 0kts
27-Nov-19 19:49 37.709454 -122.213570 146 14ft 1kts
27-Nov-19 19:50 37.709246 -122.213398 147 14ft 0kts
27-Nov-19 19:51 37.709246 -122.213398 147 14ft 0kts
27-Nov-19 19:52 37.709246 -122.213398 147 14ft 0kts

Navigation Log

Ident Type
Flight plan parsing failed, navigation log unavailable